»·PEaware :: N522PM KSAN-KPSP

N522PM :: KSAN-KPSP

FLIGHT INFORMATION

Flight Status: Arrived
Operator: Privately registered:
United States
More flights under this callsign
Pilot: Bruce B. (6887)
Aircraft: Unknown
(E50P)
More flights by this aircraft type
Origin: KSAN San Diego Intl-Lindbergh
United States
Destination: KPSP Palm Springs Intl
United States
More flights between these airports :: More routes between these airports
Route: TRM
File this flight plan on PilotEdge
Remarks:
Altitude:
(Current/Filed)
13,500ft
Speed:
(Current/Filed)
300kts
Departed: 21-Dec-19 04:05 PM
Arrived: 21-Dec-19 04:35 PM
Distance/Time
Traveled:
74nm/0:30
Distance/Time
To Go:
Arrived

Flight Plot

Page will automatically refresh every two minutes.

Flight plan parsing failed; only flown route is shown


Map Options




Map Legend


Flown Route
Filed Route
Departure Airport
Arrival Airport
Navaid (VOR, NDB)
Fix

Horizontal Profiles

Position Reports

Time Latitude Longitude Heading Altitude Ground
Speed
21-Dec-19 15:48 32.733462 -117.178683 18 20ft 0kts
21-Dec-19 15:49 32.733462 -117.178683 18 20ft 0kts
21-Dec-19 15:50 32.733462 -117.178683 18 20ft 0kts
21-Dec-19 15:51 32.733462 -117.178683 18 20ft 0kts
21-Dec-19 15:52 32.733462 -117.178683 18 20ft 0kts
21-Dec-19 15:53 32.733462 -117.178683 18 20ft 0kts
21-Dec-19 15:54 32.733462 -117.178683 18 20ft 0kts
21-Dec-19 15:55 32.733462 -117.178683 18 20ft 0kts
21-Dec-19 15:56 32.733462 -117.178683 18 20ft 0kts
21-Dec-19 15:57 32.733462 -117.178683 18 20ft 0kts
21-Dec-19 15:58 32.733462 -117.178683 18 20ft 0kts
21-Dec-19 15:59 32.733484 -117.178678 4 20ft 2kts
21-Dec-19 16:00 32.731885 -117.178008 105 20ft 17kts
21-Dec-19 16:01 32.731010 -117.175524 143 20ft 0kts
21-Dec-19 16:02 32.731010 -117.175523 143 20ft 0kts
21-Dec-19 16:03 32.730444 -117.175242 182 20ft 13kts
21-Dec-19 16:04 32.737726 -117.204480 288 469ft 179kts
21-Dec-19 16:05 32.754714 -117.266237 287 2827ft 206kts
21-Dec-19 16:06 32.719718 -117.304512 192 5077ft 216kts
21-Dec-19 16:07 32.662514 -117.321626 189 7528ft 211kts
21-Dec-19 16:08 32.638393 -117.268193 85 9353ft 242kts
21-Dec-19 16:09 32.653313 -117.188678 82 11157ft 249kts
21-Dec-19 16:10 32.670260 -117.109103 82 12948ft 247kts
21-Dec-19 16:11 32.688103 -117.024766 82 13502ft 282kts
21-Dec-19 16:12 32.722938 -116.937498 50 13510ft 315kts
21-Dec-19 16:13 32.786195 -116.862030 48 13506ft 328kts
21-Dec-19 16:14 32.850759 -116.783753 49 13509ft 338kts
21-Dec-19 16:15 32.917818 -116.702098 49 13515ft 349kts
21-Dec-19 16:16 32.986184 -116.618684 49 13516ft 352kts
21-Dec-19 16:17 33.054382 -116.535242 49 13519ft 350kts
21-Dec-19 16:18 33.122161 -116.452120 49 13544ft 348kts
21-Dec-19 16:19 33.189479 -116.369349 49 13566ft 345kts
21-Dec-19 16:20 33.255183 -116.288435 49 13571ft 331kts
21-Dec-19 16:21 33.315869 -116.213656 49 13557ft 290kts
21-Dec-19 16:22 33.371922 -116.144344 46 11284ft 287kts
21-Dec-19 16:23 33.446389 -116.137914 353 8995ft 273kts
21-Dec-19 16:24 33.519818 -116.146062 353 6699ft 256kts
21-Dec-19 16:25 33.587543 -116.154860 354 4419ft 235kts
21-Dec-19 16:26 33.641445 -116.182973 304 4079ft 210kts
21-Dec-19 16:27 33.673581 -116.238183 303 4006ft 196kts
21-Dec-19 16:28 33.700725 -116.289632 296 3948ft 172kts
21-Dec-19 16:29 33.724530 -116.340429 298 3369ft 174kts
21-Dec-19 16:30 33.747593 -116.389448 299 2589ft 160kts
21-Dec-19 16:31 33.767776 -116.431359 299 2009ft 130kts
21-Dec-19 16:32 33.786969 -116.466773 309 1551ft 122kts
21-Dec-19 16:33 33.811141 -116.491176 323 802ft 103kts
21-Dec-19 16:34 33.829840 -116.507867 325 482ft 35kts
21-Dec-19 16:35 33.831486 -116.511414 145 482ft 20kts
21-Dec-19 16:36 33.827611 -116.508869 146 482ft 0kts
21-Dec-19 16:37 33.825665 -116.509313 270 482ft 0kts
21-Dec-19 16:38 33.825665 -116.509320 270 482ft 0kts
21-Dec-19 16:39 33.825665 -116.509320 270 482ft 0kts

Navigation Log

Ident Type
Flight plan parsing failed, navigation log unavailable